createdAt,value
2019-06-15T00:00:29.716Z,66.36
2019-06-15T00:01:29.719Z,67.22
2019-06-15T00:02:29.790Z,66.74
2019-06-15T00:03:29.747Z,66.07
2019-06-15T00:04:29.767Z,66.65
2019-06-15T00:05:29.788Z,66.17
2019-06-15T00:06:29.816Z,66.68
2019-06-15T00:07:29.819Z,67.26
2019-06-15T00:08:29.835Z,67.32
2019-06-15T00:09:29.862Z,67.80
2019-06-15T00:10:29.875Z,67.32
2019-06-15T00:11:29.898Z,67.22
2019-06-15T00:12:29.917Z,67.22
2019-06-15T00:13:29.949Z,67.26
2019-06-15T00:14:29.984Z,66.07
2019-06-15T00:15:29.993Z,65.69
2019-06-15T00:16:30.006Z,67.22
2019-06-15T00:17:30.013Z,66.74
2019-06-15T00:18:30.032Z,65.88
2019-06-15T00:19:30.060Z,65.97
2019-06-15T00:20:30.072Z,66.65
2019-06-15T00:21:30.094Z,66.55
2019-06-15T00:22:30.116Z,66.94
2019-06-15T00:23:30.132Z,67.13
2019-06-15T00:24:35.253Z,66.65
2019-06-15T00:25:30.235Z,65.50
2019-06-15T00:26:30.210Z,66.07
2019-06-15T00:27:30.222Z,66.65
2019-06-15T00:28:30.236Z,66.74
2019-06-15T00:29:30.262Z,67.42
2019-06-15T00:30:30.270Z,67.22
2019-06-15T00:31:30.307Z,65.69
2019-06-15T00:32:30.319Z,66.07
2019-06-15T00:33:30.335Z,65.01
2019-06-15T00:34:30.362Z,66.07
2019-06-15T00:35:30.372Z,65.78
2019-06-15T00:36:30.395Z,66.17
2019-06-15T00:37:30.432Z,66.74
2019-06-15T00:38:30.432Z,66.36
2019-06-15T00:39:30.456Z,66.94
2019-06-15T00:40:30.476Z,67.32
2019-06-15T00:41:30.504Z,66.74
2019-06-15T00:42:30.535Z,67.42
2019-06-15T00:43:30.533Z,67.80
2019-06-15T00:44:30.547Z,67.45
2019-06-15T00:45:30.581Z,67.83
2019-06-15T00:46:30.645Z,67.65
2019-06-15T00:47:30.606Z,67.65
2019-06-15T00:48:30.696Z,68.70
2019-06-15T00:49:30.654Z,68.70
2019-06-15T00:50:30.671Z,69.09
2019-06-15T00:51:30.688Z,69.28
2019-06-15T00:52:30.706Z,69.28
2019-06-15T00:53:30.725Z,69.38
2019-06-15T00:54:30.765Z,69.22
2019-06-15T00:55:30.769Z,69.12
2019-06-15T00:56:30.786Z,69.28
2019-06-15T00:57:30.810Z,67.83
2019-06-15T00:58:30.828Z,67.35
2019-06-15T00:59:30.850Z,67.65
2019-06-15T01:00:30.869Z,66.68
2019-06-15T01:01:30.890Z,67.42
2019-06-15T01:02:30.903Z,70.98
2019-06-15T01:03:30.925Z,79.38
2019-06-15T01:04:30.955Z,79.71
2019-06-15T01:05:30.965Z,79.81
2019-06-15T01:06:31.046Z,80.19
2019-06-15T01:07:31.009Z,79.94
2019-06-15T01:08:31.166Z,80.52
2019-06-15T01:09:31.045Z,80.04
2019-06-15T01:10:31.067Z,79.75
2019-06-15T01:11:31.085Z,79.89
2019-06-15T01:12:31.231Z,80.85
2019-06-15T01:13:31.141Z,80.76
2019-06-15T01:14:31.267Z,79.89
2019-06-15T01:15:31.171Z,80.85
2019-06-15T01:16:31.188Z,80.94
2019-06-15T01:17:31.205Z,81.81
2019-06-15T01:18:31.221Z,80.37
2019-06-15T01:19:31.241Z,80.27
2019-06-15T01:20:31.263Z,80.46
2019-06-15T01:21:31.286Z,79.41
2019-06-15T01:22:31.300Z,79.41
2019-06-15T01:23:31.338Z,79.50
2019-06-15T01:24:31.350Z,79.50
2019-06-15T01:25:31.369Z,79.50
2019-06-15T01:26:31.389Z,80.60
2019-06-15T01:27:31.408Z,80.22
2019-06-15T01:28:31.433Z,79.35
2019-06-15T01:29:31.450Z,79.83
2019-06-15T01:30:31.465Z,79.69
2019-06-15T01:31:31.487Z,78.92
2019-06-15T01:32:31.507Z,78.92
2019-06-15T01:33:31.531Z,78.83
2019-06-15T01:34:31.587Z,77.28
2019-06-15T01:35:31.565Z,75.42
2019-06-15T01:36:31.583Z,73.68
2019-06-15T01:37:31.606Z,74.26
2019-06-15T01:38:31.624Z,71.62
2019-06-15T01:39:31.655Z,68.99
2019-06-15T01:40:31.665Z,69.18
2019-06-15T01:41:31.689Z,68.70
2019-06-15T01:42:31.707Z,69.60
2019-06-15T01:43:31.733Z,71.72
2019-06-15T01:44:31.747Z,71.14
2019-06-15T01:45:31.767Z,71.14
2019-06-15T01:46:31.794Z,72.30
2019-06-15T01:47:31.811Z,73.55
2019-06-15T01:48:31.822Z,72.59
2019-06-15T01:49:31.845Z,73.88
2019-06-15T01:50:31.868Z,74.22
2019-06-15T01:51:31.883Z,73.84
2019-06-15T01:52:31.903Z,75.03
2019-06-15T01:53:31.927Z,73.88
2019-06-15T01:54:31.943Z,75.61
2019-06-15T01:55:32.018Z,73.88
2019-06-15T01:56:32.174Z,76.53
2019-06-15T01:57:32.104Z,77.88
2019-06-15T01:58:32.027Z,78.85
2019-06-15T01:59:32.043Z,78.69
2019-06-15T02:00:32.062Z,78.88
2019-06-15T02:01:32.082Z,79.36
2019-06-15T02:02:32.107Z,79.56
2019-06-15T02:03:32.126Z,79.36
2019-06-15T02:04:32.145Z,79.75
2019-06-15T02:05:32.161Z,79.75
2019-06-15T02:06:32.183Z,80.04
2019-06-15T02:07:32.212Z,80.43
2019-06-15T02:08:32.225Z,80.04
2019-06-15T02:09:32.243Z,79.98
2019-06-15T02:10:32.264Z,79.89
2019-06-15T02:11:32.288Z,81.20
2019-06-15T02:12:32.351Z,80.56
2019-06-15T02:13:32.324Z,80.46
2019-06-15T02:14:32.343Z,80.46
2019-06-15T02:15:32.362Z,81.04
2019-06-15T02:16:32.393Z,81.33
2019-06-15T02:17:32.417Z,81.81
2019-06-15T02:18:32.421Z,81.62
2019-06-15T02:19:32.445Z,81.52
2019-06-15T02:20:32.462Z,81.81
2019-06-15T02:21:32.481Z,80.85
2019-06-15T02:22:32.528Z,80.56
2019-06-15T02:23:32.520Z,80.18
2019-06-15T02:24:32.539Z,81.24
2019-06-15T02:25:36.202Z,80.76
2019-06-15T02:26:32.584Z,80.37
2019-06-15T02:27:32.606Z,79.69
2019-06-15T02:28:32.648Z,80.27
2019-06-15T02:29:32.643Z,79.79
2019-06-15T02:30:32.683Z,80.56
2019-06-15T02:31:32.684Z,79.79
2019-06-15T02:32:32.703Z,80.56
2019-06-15T02:33:32.754Z,79.93
2019-06-15T02:34:32.738Z,79.64
2019-06-15T02:35:32.764Z,78.29
2019-06-15T02:36:32.779Z,76.84
2019-06-15T02:37:32.803Z,75.84
2019-06-15T02:38:32.825Z,75.36
2019-06-15T02:39:32.839Z,74.01
2019-06-15T02:40:32.860Z,75.07
2019-06-15T02:41:32.886Z,74.88
2019-06-15T02:42:32.899Z,74.49
2019-06-15T02:43:32.921Z,73.43
2019-06-15T02:44:32.970Z,74.58
2019-06-15T02:45:33.025Z,73.33
2019-06-15T02:46:32.991Z,73.43
2019-06-15T02:47:32.999Z,73.62
2019-06-15T02:48:33.022Z,73.14
2019-06-15T02:49:33.045Z,78.11
2019-06-15T02:50:33.063Z,77.96
2019-06-15T02:51:33.088Z,75.26
2019-06-15T02:52:33.106Z,76.71
2019-06-15T02:53:33.122Z,76.80
2019-06-15T02:54:33.146Z,77.19
2019-06-15T02:55:33.173Z,79.69
2019-06-15T02:56:33.182Z,79.31
2019-06-15T02:57:33.206Z,79.89
2019-06-15T02:58:33.225Z,79.79
2019-06-15T02:59:33.247Z,80.27
2019-06-15T03:00:33.262Z,81.14
2019-06-15T03:01:33.292Z,79.98
2019-06-15T03:02:33.407Z,76.61
2019-06-15T03:03:33.322Z,76.51
2019-06-15T03:04:33.380Z,75.26
2019-06-15T03:05:33.364Z,74.93
2019-06-15T03:06:33.383Z,73.39
2019-06-15T03:07:33.407Z,74.65
2019-06-15T03:08:33.425Z,74.26
2019-06-15T03:09:33.450Z,74.20
2019-06-15T03:10:33.467Z,74.20
2019-06-15T03:11:33.486Z,74.97
2019-06-15T03:12:33.528Z,74.49
2019-06-15T03:13:33.524Z,74.78
2019-06-15T03:14:33.546Z,74.40
2019-06-15T03:15:33.569Z,74.07
2019-06-15T03:16:33.585Z,74.16
2019-06-15T03:17:33.607Z,73.68
2019-06-15T03:18:33.633Z,73.20
2019-06-15T03:19:33.648Z,74.41
2019-06-15T03:20:33.692Z,73.20
2019-06-15T03:21:33.783Z,72.43
2019-06-15T03:22:33.758Z,73.01
2019-06-15T03:23:33.725Z,72.78
2019-06-15T03:24:33.747Z,71.81
2019-06-15T03:25:33.791Z,72.78
2019-06-15T03:26:33.797Z,71.62
2019-06-15T03:27:33.809Z,72.01
2019-06-15T03:28:33.827Z,71.66
2019-06-15T03:29:33.846Z,71.14
2019-06-15T03:30:33.933Z,69.54
2019-06-15T03:31:33.897Z,70.76
2019-06-15T03:32:33.909Z,70.76
2019-06-15T03:33:33.934Z,69.79
2019-06-15T03:34:33.953Z,69.79
2019-06-15T03:35:33.968Z,69.31
2019-06-15T03:36:33.995Z,69.02
2019-06-15T03:37:34.008Z,69.02
2019-06-15T03:38:34.046Z,68.64
2019-06-15T03:39:34.048Z,69.02
2019-06-15T03:40:34.195Z,69.60
2019-06-15T03:41:34.089Z,70.09
2019-06-15T03:42:34.108Z,69.02
2019-06-15T03:43:34.130Z,68.93
2019-06-15T03:44:34.346Z,68.80
2019-06-15T03:45:34.198Z,68.26
2019-06-15T03:46:34.185Z,68.70
2019-06-15T03:47:34.236Z,67.74
2019-06-15T03:48:34.231Z,67.74
2019-06-15T03:49:34.254Z,66.78
2019-06-15T03:50:34.266Z,68.13
2019-06-15T03:51:34.289Z,67.65
2019-06-15T03:52:34.308Z,67.26
2019-06-15T03:53:34.326Z,68.41
2019-06-15T03:54:34.372Z,68.03
2019-06-15T03:55:34.388Z,68.32
2019-06-15T03:56:34.394Z,68.03
2019-06-15T03:57:34.415Z,67.35
2019-06-15T03:58:34.426Z,67.97
2019-06-15T03:59:34.446Z,68.54
2019-06-15T04:00:34.465Z,68.41
2019-06-15T04:01:34.486Z,68.60
2019-06-15T04:02:34.507Z,68.60
2019-06-15T04:03:34.531Z,66.39
2019-06-15T04:04:34.546Z,66.68
2019-06-15T04:05:34.572Z,67.35
2019-06-15T04:06:34.588Z,68.41
2019-06-15T04:07:34.606Z,69.02
2019-06-15T04:08:34.623Z,69.89
2019-06-15T04:09:34.649Z,70.86
2019-06-15T04:10:34.664Z,68.35
2019-06-15T04:11:34.684Z,68.41
2019-06-15T04:12:34.708Z,69.31
2019-06-15T04:13:34.731Z,69.09
2019-06-15T04:14:34.743Z,68.93
2019-06-15T04:15:34.765Z,69.79
2019-06-15T04:16:34.892Z,69.02
2019-06-15T04:17:34.803Z,68.84
2019-06-15T04:18:34.824Z,69.02
2019-06-15T04:19:34.844Z,67.87
2019-06-15T04:20:34.862Z,68.16
2019-06-15T04:21:34.883Z,68.74
2019-06-15T04:22:34.907Z,69.60
2019-06-15T04:23:34.942Z,69.93
2019-06-15T04:24:34.959Z,69.06
2019-06-15T04:25:34.963Z,70.31
2019-06-15T04:26:36.265Z,71.98
2019-06-15T04:27:35.049Z,73.05
2019-06-15T04:28:35.028Z,73.62
2019-06-15T04:29:35.043Z,73.43
2019-06-15T04:30:35.064Z,73.53
2019-06-15T04:31:35.082Z,72.66
2019-06-15T04:32:35.103Z,73.72
2019-06-15T04:33:35.137Z,73.53
2019-06-15T04:34:35.150Z,74.01
2019-06-15T04:35:35.171Z,74.10
2019-06-15T04:36:35.197Z,74.49
2019-06-15T04:37:35.216Z,75.36
2019-06-15T04:38:35.232Z,74.78
2019-06-15T04:39:35.346Z,74.97
2019-06-15T04:40:35.273Z,73.14
2019-06-15T04:41:35.286Z,72.85
2019-06-15T04:42:35.314Z,71.98
2019-06-15T04:43:35.336Z,72.47
2019-06-15T04:44:35.355Z,70.25
2019-06-15T04:45:35.371Z,71.60
2019-06-15T04:46:35.410Z,72.37
2019-06-15T04:47:35.411Z,72.75
2019-06-15T04:48:35.436Z,73.43
2019-06-15T04:49:35.455Z,72.75
2019-06-15T04:50:35.469Z,73.08
2019-06-15T04:51:35.493Z,72.85
2019-06-15T04:52:35.514Z,74.62
2019-06-15T04:53:35.542Z,75.68
2019-06-15T04:54:35.552Z,76.17
2019-06-15T04:55:35.607Z,76.30
2019-06-15T04:56:50.046Z,76.10
2019-06-15T04:57:35.616Z,76.30
2019-06-15T04:58:35.647Z,77.30
2019-06-15T04:59:35.661Z,78.89
2019-06-15T05:00:35.684Z,78.89
2019-06-15T05:01:35.709Z,79.85
2019-06-15T05:02:35.719Z,81.24
2019-06-15T05:03:35.744Z,81.19
2019-06-15T05:04:35.761Z,81.71
2019-06-15T05:05:35.784Z,82.14
2019-06-15T05:06:35.804Z,82.57
2019-06-15T05:07:35.836Z,82.66
2019-06-15T05:08:35.858Z,82.47
2019-06-15T05:09:35.870Z,82.51
2019-06-15T05:10:35.955Z,82.45
2019-06-15T05:11:35.926Z,81.62
2019-06-15T05:12:35.942Z,81.97
2019-06-15T05:13:35.992Z,82.12
2019-06-15T05:14:35.983Z,82.35
2019-06-15T05:15:36.011Z,82.35
2019-06-15T05:16:36.036Z,82.17
2019-06-15T05:17:36.052Z,82.26
2019-06-15T05:18:36.139Z,81.83
2019-06-15T05:19:36.111Z,82.60
2019-06-15T05:20:36.116Z,82.76
2019-06-15T05:21:36.165Z,83.15
2019-06-15T05:22:36.249Z,83.34
2019-06-15T05:23:36.234Z,83.34
2019-06-15T05:24:36.210Z,83.30
2019-06-15T05:25:36.232Z,83.59
2019-06-15T05:26:36.252Z,83.30
2019-06-15T05:27:36.291Z,83.59
2019-06-15T05:28:36.315Z,83.69
2019-06-15T05:29:36.318Z,83.59
2019-06-15T05:30:36.363Z,83.49
2019-06-15T05:31:36.367Z,83.69
2019-06-15T05:32:36.417Z,83.69
2019-06-15T05:33:36.409Z,83.55
2019-06-15T05:34:36.433Z,83.84
2019-06-15T05:35:36.452Z,83.94
2019-06-15T05:36:36.486Z,84.22
2019-06-15T05:37:36.496Z,83.84
2019-06-15T05:38:36.523Z,83.36
2019-06-15T05:39:36.542Z,83.20
2019-06-15T05:40:36.576Z,83.01
2019-06-15T05:41:36.583Z,83.11
2019-06-15T05:42:36.606Z,82.57
2019-06-15T05:43:36.631Z,82.47
2019-06-15T05:44:36.653Z,82.37
2019-06-15T05:45:36.676Z,82.37
2019-06-15T05:46:36.701Z,82.51
2019-06-15T05:47:36.722Z,82.22
2019-06-15T05:48:36.738Z,82.60
2019-06-15T05:49:36.768Z,82.41
2019-06-15T05:50:36.790Z,82.03
2019-06-15T05:51:36.806Z,82.41
2019-06-15T05:52:36.843Z,82.55
2019-06-15T05:53:36.883Z,81.73
2019-06-15T05:54:36.884Z,81.64
2019-06-15T05:55:36.904Z,81.83
2019-06-15T05:56:36.918Z,82.03
2019-06-15T05:57:37.046Z,81.25
2019-06-15T05:58:36.963Z,81.50
2019-06-15T05:59:36.989Z,82.32
2019-06-15T06:00:37.007Z,82.35
2019-06-15T06:01:37.036Z,81.00
2019-06-15T06:02:37.061Z,80.80
2019-06-15T06:03:37.074Z,81.10
2019-06-15T06:04:37.113Z,80.07
2019-06-15T06:05:37.131Z,79.43
2019-06-15T06:06:37.152Z,79.12
2019-06-15T06:07:37.175Z,78.25
2019-06-15T06:08:37.204Z,77.90
2019-06-15T06:09:37.217Z,77.35
2019-06-15T06:10:37.247Z,77.35
2019-06-15T06:11:37.262Z,77.74
2019-06-15T06:12:37.281Z,77.84
2019-06-15T06:13:37.446Z,77.99
2019-06-15T06:14:37.331Z,78.19
2019-06-15T06:15:37.372Z,78.34
2019-06-15T06:16:37.379Z,78.11
2019-06-15T06:17:37.401Z,79.43
2019-06-15T06:18:37.433Z,79.43
2019-06-15T06:19:37.445Z,79.37
2019-06-15T06:20:37.478Z,78.58
2019-06-15T06:21:37.500Z,77.70
2019-06-15T06:22:37.521Z,76.57
2019-06-15T06:23:37.593Z,76.38
2019-06-15T06:24:37.565Z,76.26
2019-06-15T06:25:37.589Z,75.52
2019-06-15T06:26:37.617Z,74.74
2019-06-15T06:27:37.633Z,74.74
2019-06-15T06:28:37.663Z,74.55
2019-06-15T06:29:37.680Z,75.62
2019-06-15T06:30:37.704Z,75.52
2019-06-15T06:31:37.759Z,75.97
2019-06-15T06:32:37.755Z,75.60
2019-06-15T06:33:37.781Z,76.57
2019-06-15T06:34:37.815Z,77.02
2019-06-15T06:35:37.847Z,77.10
2019-06-15T06:36:37.848Z,76.90
2019-06-15T06:37:37.870Z,76.26
2019-06-15T06:38:37.898Z,76.20
2019-06-15T06:39:37.927Z,76.30
2019-06-15T06:40:37.945Z,75.85
2019-06-15T06:41:38.015Z,74.52
2019-06-15T06:42:38.141Z,73.00
2019-06-15T06:43:38.058Z,72.19
2019-06-15T06:44:38.081Z,71.80
2019-06-15T06:45:38.099Z,70.37
2019-06-15T06:46:38.091Z,69.73
2019-06-15T06:47:38.114Z,69.21
2019-06-15T06:48:38.140Z,68.85
2019-06-15T06:49:38.163Z,67.29
2019-06-15T06:50:41.176Z,67.02
2019-06-15T06:51:38.662Z,67.02
2019-06-15T06:52:38.245Z,67.41
2019-06-15T06:53:38.267Z,67.58
2019-06-15T06:54:38.300Z,67.54
2019-06-15T06:55:38.367Z,66.05
2019-06-15T06:56:38.342Z,66.73
2019-06-15T06:57:51.235Z,66.47
2019-06-15T06:58:38.393Z,66.69
2019-06-15T06:59:38.421Z,65.42
2019-06-15T07:00:38.462Z,66.99
2019-06-15T07:01:38.469Z,68.36
2019-06-15T07:02:38.505Z,68.26
2019-06-15T07:03:38.536Z,68.10
2019-06-15T07:04:38.552Z,67.51
2019-06-15T07:05:38.587Z,68.88
2019-06-15T07:06:38.602Z,68.59
2019-06-15T07:07:38.632Z,68.32
2019-06-15T07:08:38.708Z,68.39
2019-06-15T07:09:38.681Z,68.55
2019-06-15T07:10:38.741Z,70.37
2019-06-15T07:11:38.751Z,70.37
2019-06-15T07:12:38.759Z,70.12
2019-06-15T07:13:38.786Z,69.98
2019-06-15T07:14:38.810Z,70.28
2019-06-15T07:15:38.842Z,70.57
2019-06-15T07:16:38.860Z,70.28
2019-06-15T07:17:38.893Z,69.59
2019-06-15T07:18:39.052Z,70.31
2019-06-15T07:19:38.942Z,69.82
2019-06-15T07:20:38.966Z,68.85
2019-06-15T07:21:39.099Z,69.59
2019-06-15T07:22:39.039Z,69.75
2019-06-15T07:23:39.080Z,69.30
2019-06-15T07:24:39.231Z,69.34
2019-06-15T07:25:39.320Z,68.16
2019-06-15T07:26:39.179Z,67.64
2019-06-15T07:27:39.145Z,67.58
2019-06-15T07:28:39.438Z,66.47
2019-06-15T07:29:39.197Z,65.98
2019-06-15T07:30:39.221Z,66.66
2019-06-15T07:31:39.245Z,66.14
2019-06-15T07:32:39.274Z,67.48
2019-06-15T07:33:39.300Z,67.29
2019-06-15T07:34:39.328Z,66.50
2019-06-15T07:35:39.355Z,65.30
2019-06-15T07:36:39.383Z,66.05
2019-06-15T07:37:39.404Z,67.19
2019-06-15T07:38:39.459Z,67.15
2019-06-15T07:39:39.470Z,67.09
2019-06-15T07:40:39.486Z,66.63
2019-06-15T07:41:39.512Z,67.19
2019-06-15T07:42:39.775Z,67.02
2019-06-15T07:43:39.575Z,65.88
2019-06-15T07:44:39.603Z,65.88
2019-06-15T07:45:39.627Z,65.59
2019-06-15T07:46:39.644Z,64.94
2019-06-15T07:47:39.684Z,62.98
2019-06-15T07:48:39.698Z,63.10
2019-06-15T07:49:39.729Z,63.20
2019-06-15T07:50:39.764Z,64.28
2019-06-15T07:51:39.793Z,63.33
2019-06-15T07:52:39.805Z,63.10
2019-06-15T07:53:39.833Z,63.98
2019-06-15T07:54:39.865Z,64.22
2019-06-15T07:55:39.894Z,64.67
2019-06-15T07:56:39.919Z,65.81
2019-06-15T07:57:39.952Z,65.65
2019-06-15T07:58:39.989Z,65.16
2019-06-15T07:59:40.002Z,65.16
2019-06-15T08:00:40.033Z,64.58
2019-06-15T08:01:40.081Z,65.81
2019-06-15T08:02:40.086Z,65.06
2019-06-15T08:03:43.247Z,65.65
2019-06-15T08:04:40.149Z,65.72
2019-06-15T08:05:40.165Z,65.26
2019-06-15T08:06:40.194Z,65.55
2019-06-15T08:07:40.217Z,65.17
2019-06-15T08:08:40.240Z,67.38
2019-06-15T08:09:40.269Z,68.03
2019-06-15T08:10:40.298Z,68.77
2019-06-15T08:11:40.324Z,70.24
2019-06-15T08:12:40.384Z,69.46
2019-06-15T08:13:40.381Z,70.14
2019-06-15T08:14:40.403Z,70.31
2019-06-15T08:15:40.446Z,71.25
2019-06-15T08:16:40.482Z,72.92
2019-06-15T08:17:40.481Z,74.00
2019-06-15T08:18:40.568Z,73.45
2019-06-15T08:19:40.532Z,72.71
2019-06-15T08:20:40.557Z,72.02
2019-06-15T08:21:40.606Z,72.80
2019-06-15T08:22:40.611Z,72.86
2019-06-15T08:23:40.641Z,73.55
2019-06-15T08:24:40.764Z,73.55
2019-06-15T08:25:40.686Z,73.57
2019-06-15T08:26:40.712Z,74.22
2019-06-15T08:27:40.749Z,74.80
2019-06-15T08:28:40.868Z,74.48
2019-06-15T08:29:40.801Z,75.31
2019-06-15T08:30:40.821Z,75.93
2019-06-15T08:31:40.874Z,75.19
2019-06-15T08:32:40.858Z,73.83
2019-06-15T08:33:40.894Z,75.35
2019-06-15T08:34:40.907Z,75.99
2019-06-15T08:35:40.940Z,75.89
2019-06-15T08:36:40.956Z,76.48
2019-06-15T08:37:40.988Z,75.64
2019-06-15T08:38:41.006Z,75.54
2019-06-15T08:39:41.035Z,76.03
2019-06-15T08:40:41.055Z,74.90
2019-06-15T08:41:41.095Z,74.35
2019-06-15T08:42:41.141Z,74.04
2019-06-15T08:43:41.128Z,72.64
2019-06-15T08:44:41.293Z,73.67
2019-06-15T08:45:41.176Z,74.61
2019-06-15T08:46:41.201Z,74.71
2019-06-15T08:47:41.270Z,74.67
2019-06-15T08:48:41.252Z,75.25
2019-06-15T08:49:41.332Z,74.76
2019-06-15T08:50:41.322Z,75.54
2019-06-15T08:51:41.335Z,75.31
2019-06-15T08:52:41.348Z,75.31
2019-06-15T08:53:41.369Z,76.09
2019-06-15T08:54:41.435Z,75.76
2019-06-15T08:55:41.476Z,76.34
2019-06-15T08:56:41.441Z,76.34
2019-06-15T08:57:41.461Z,76.54
2019-06-15T08:58:54.759Z,76.05
2019-06-15T08:59:41.516Z,75.95
2019-06-15T09:00:41.540Z,76.18
2019-06-15T09:01:41.566Z,76.34
2019-06-15T09:02:41.593Z,76.34
2019-06-15T09:03:41.611Z,76.11
2019-06-15T09:04:41.676Z,76.34
2019-06-15T09:05:41.651Z,76.05
2019-06-15T09:06:41.675Z,75.70
2019-06-15T09:07:41.699Z,75.12
2019-06-15T09:08:41.749Z,74.82
2019-06-15T09:09:41.758Z,75.70
2019-06-15T09:10:41.788Z,75.51
2019-06-15T09:11:41.803Z,74.76
2019-06-15T09:12:41.822Z,75.35
2019-06-15T09:13:41.853Z,74.71
2019-06-15T09:14:41.903Z,74.61
2019-06-15T09:15:41.898Z,74.26
2019-06-15T09:16:42.001Z,73.63
2019-06-15T09:17:41.940Z,73.63
2019-06-15T09:18:41.985Z,73.79
2019-06-15T09:19:41.986Z,75.41
2019-06-15T09:20:42.021Z,75.70
2019-06-15T09:21:42.043Z,75.70
2019-06-15T09:22:42.177Z,77.12
2019-06-15T09:23:42.088Z,76.73
2019-06-15T09:24:42.100Z,76.98
2019-06-15T09:25:42.126Z,77.67
2019-06-15T09:26:42.148Z,77.28
2019-06-15T09:27:42.189Z,76.98
2019-06-15T09:28:42.208Z,77.28
2019-06-15T09:29:42.219Z,77.57
2019-06-15T09:30:42.260Z,77.43
2019-06-15T09:31:42.263Z,77.78
2019-06-15T09:32:42.357Z,77.88
2019-06-15T09:33:42.314Z,77.72
2019-06-15T09:34:42.341Z,77.43
2019-06-15T09:35:42.516Z,77.72
2019-06-15T09:36:42.385Z,78.33
2019-06-15T09:37:42.433Z,78.91
2019-06-15T09:38:42.433Z,78.75
2019-06-15T09:39:42.454Z,78.13
2019-06-15T09:40:42.489Z,78.36
2019-06-15T09:41:42.499Z,78.42
2019-06-15T09:42:42.527Z,78.66
2019-06-15T09:43:42.545Z,78.40
2019-06-15T09:44:42.576Z,77.67
2019-06-15T09:45:42.633Z,77.57
2019-06-15T09:46:42.640Z,77.92
2019-06-15T09:47:42.636Z,77.53
2019-06-15T09:48:42.674Z,77.53
2019-06-15T09:49:42.696Z,77.43
2019-06-15T09:50:42.754Z,78.50
2019-06-15T09:51:42.791Z,78.56
2019-06-15T09:52:42.747Z,78.07
2019-06-15T09:53:42.824Z,78.36
2019-06-15T09:54:42.832Z,78.17
2019-06-15T09:55:42.820Z,79.04
2019-06-15T09:56:42.844Z,78.66
2019-06-15T09:57:42.868Z,78.94
2019-06-15T09:58:42.885Z,78.31
2019-06-15T09:59:43.006Z,79.28
2019-06-15T10:00:42.951Z,78.38
2019-06-15T10:01:42.964Z,77.06
2019-06-15T10:02:42.978Z,76.87
2019-06-15T10:03:43.000Z,76.26
2019-06-15T10:04:43.210Z,75.74
2019-06-15T10:05:43.114Z,75.64
2019-06-15T10:06:43.085Z,75.48
2019-06-15T10:07:43.096Z,75.29
2019-06-15T10:08:43.130Z,75.58
2019-06-15T10:09:43.146Z,74.99
2019-06-15T10:10:43.167Z,74.35
2019-06-15T10:11:43.184Z,74.18
2019-06-15T10:12:43.205Z,74.63
2019-06-15T10:13:43.232Z,75.47
2019-06-15T10:14:43.258Z,75.47
2019-06-15T10:15:43.279Z,75.57
2019-06-15T10:16:43.303Z,75.47
2019-06-15T10:17:43.324Z,75.67
2019-06-15T10:18:43.346Z,75.57
2019-06-15T10:19:43.372Z,75.51
2019-06-15T10:20:43.401Z,75.80
2019-06-15T10:21:43.422Z,75.51
2019-06-15T10:22:43.448Z,76.34
2019-06-15T10:23:43.470Z,76.50
2019-06-15T10:24:43.492Z,76.25
2019-06-15T10:25:43.515Z,75.67
2019-06-15T10:26:43.535Z,75.35
2019-06-15T10:27:43.554Z,74.18
2019-06-15T10:28:43.684Z,74.61
2019-06-15T10:29:43.602Z,74.71
2019-06-15T10:30:43.624Z,73.73
2019-06-15T10:31:43.658Z,73.44
2019-06-15T10:32:43.678Z,74.06
2019-06-15T10:33:43.707Z,73.63
2019-06-15T10:34:43.718Z,74.28
2019-06-15T10:35:43.741Z,74.05
2019-06-15T10:36:43.765Z,75.21
2019-06-15T10:37:43.792Z,74.63
2019-06-15T10:38:43.816Z,75.47
2019-06-15T10:39:43.849Z,75.47
2019-06-15T10:40:43.871Z,74.28
2019-06-15T10:41:43.885Z,74.08
2019-06-15T10:42:43.913Z,74.18
2019-06-15T10:43:43.927Z,74.28
2019-06-15T10:44:44.041Z,74.28
2019-06-15T10:45:43.988Z,73.79
2019-06-15T10:46:44.003Z,74.38
2019-06-15T10:47:44.021Z,74.82
2019-06-15T10:48:44.048Z,74.92
2019-06-15T10:49:44.077Z,74.57
2019-06-15T10:50:44.093Z,74.18
2019-06-15T10:51:44.117Z,74.15
2019-06-15T10:52:44.139Z,74.48
2019-06-15T10:53:44.163Z,73.63
2019-06-15T10:54:44.189Z,72.82
2019-06-15T10:55:44.243Z,73.99
2019-06-15T10:56:44.236Z,73.50
2019-06-15T10:57:44.260Z,74.86
2019-06-15T10:58:44.293Z,73.79
2019-06-15T10:59:56.423Z,73.73
2019-06-15T11:00:44.344Z,73.63
2019-06-15T11:01:44.355Z,73.63
2019-06-15T11:02:44.377Z,74.74
2019-06-15T11:03:44.399Z,73.28
2019-06-15T11:04:44.419Z,72.86
2019-06-15T11:05:44.445Z,73.08
2019-06-15T11:06:44.470Z,74.98
2019-06-15T11:07:44.505Z,75.21
2019-06-15T11:08:44.514Z,74.08
2019-06-15T11:09:44.540Z,74.28
2019-06-15T11:10:44.565Z,73.50
2019-06-15T11:11:44.597Z,72.96
2019-06-15T11:12:46.713Z,73.60
2019-06-15T11:13:44.643Z,73.11
2019-06-15T11:14:44.661Z,73.05
2019-06-15T11:15:44.697Z,72.37
2019-06-15T11:16:44.704Z,72.66
2019-06-15T11:17:44.760Z,72.63
2019-06-15T11:18:44.749Z,72.76
2019-06-15T11:19:44.771Z,73.44
2019-06-15T11:20:44.797Z,72.86
2019-06-15T11:21:44.822Z,72.11
2019-06-15T11:22:44.839Z,72.31
2019-06-15T11:23:44.864Z,73.34
2019-06-15T11:24:44.889Z,73.11
2019-06-15T11:25:44.920Z,72.86
2019-06-15T11:26:44.941Z,72.37
2019-06-15T11:27:44.956Z,72.66
2019-06-15T11:28:44.984Z,72.66
2019-06-15T11:29:45.011Z,72.47
2019-06-15T11:30:45.043Z,72.47
2019-06-15T11:31:45.065Z,72.41
2019-06-15T11:32:45.076Z,71.82
2019-06-15T11:33:45.103Z,71.14
2019-06-15T11:34:45.123Z,71.20
2019-06-15T11:35:45.163Z,71.50
2019-06-15T11:36:45.180Z,72.17
2019-06-15T11:37:45.191Z,72.11
2019-06-15T11:38:45.215Z,71.72
2019-06-15T11:39:45.241Z,72.70
2019-06-15T11:40:45.263Z,71.50
2019-06-15T11:41:45.319Z,72.41
2019-06-15T11:42:45.425Z,71.20
2019-06-15T11:43:45.334Z,71.43
2019-06-15T11:44:45.355Z,71.62
2019-06-15T11:45:45.387Z,70.85
2019-06-15T11:46:45.404Z,71.50
2019-06-15T11:47:45.428Z,71.59
2019-06-15T11:48:45.453Z,71.01
2019-06-15T11:49:45.474Z,71.14
2019-06-15T11:50:45.521Z,70.65
2019-06-15T11:51:45.521Z,70.32
2019-06-15T11:52:45.547Z,70.23
2019-06-15T11:53:45.564Z,69.45
2019-06-15T11:54:45.597Z,69.68
2019-06-15T11:55:45.622Z,69.87
2019-06-15T11:56:45.636Z,69.20
2019-06-15T11:57:45.665Z,70.32
2019-06-15T11:58:45.684Z,69.94
2019-06-15T11:59:45.715Z,69.35
2019-06-15T12:00:45.737Z,69.32
2019-06-15T12:01:45.936Z,70.62
2019-06-15T12:02:45.954Z,69.29
2019-06-15T12:03:46.017Z,69.29
2019-06-15T12:04:57.740Z,69.20
2019-06-15T12:05:45.880Z,69.03
2019-06-15T12:06:45.919Z,69.52
2019-06-15T12:07:45.954Z,68.22
2019-06-15T12:08:45.948Z,68.80
2019-06-15T12:09:45.946Z,68.80
2019-06-15T12:10:45.976Z,68.55
2019-06-15T12:11:46.020Z,68.55
2019-06-15T12:12:46.147Z,68.55
2019-06-15T12:13:46.037Z,68.45
2019-06-15T12:14:46.133Z,69.03
2019-06-15T12:15:46.089Z,68.64
2019-06-15T12:16:46.172Z,68.84
2019-06-15T12:17:46.139Z,70.68
2019-06-15T12:18:46.174Z,68.84
2019-06-15T12:19:46.184Z,68.84
2019-06-15T12:20:46.232Z,69.39
2019-06-15T12:21:46.282Z,70.23
2019-06-15T12:22:46.251Z,70.52
2019-06-15T12:23:46.334Z,71.04
2019-06-15T12:24:46.362Z,70.59
2019-06-15T12:25:46.454Z,68.93
2019-06-15T12:26:46.346Z,69.17
2019-06-15T12:27:46.373Z,68.80
2019-06-15T12:28:46.403Z,67.74
2019-06-15T12:29:46.421Z,67.74
2019-06-15T12:30:47.758Z,67.60
2019-06-15T12:31:46.471Z,67.41
2019-06-15T12:32:46.507Z,67.80
2019-06-15T12:33:46.521Z,68.64
2019-06-15T12:34:46.557Z,69.48
2019-06-15T12:35:46.569Z,69.87
2019-06-15T12:36:46.614Z,70.72
2019-06-15T12:37:46.610Z,71.26
2019-06-15T12:38:46.630Z,71.17
2019-06-15T12:39:46.655Z,71.46
2019-06-15T12:40:46.678Z,70.84
2019-06-15T12:41:46.697Z,71.17
2019-06-15T12:42:46.754Z,70.58
2019-06-15T12:43:46.749Z,70.16
2019-06-15T12:44:46.778Z,70.39
2019-06-15T12:45:46.796Z,71.11
2019-06-15T12:46:46.844Z,69.58
2019-06-15T12:47:46.843Z,69.10
2019-06-15T12:48:46.865Z,68.84
2019-06-15T12:49:46.889Z,68.74
2019-06-15T12:50:46.913Z,69.17
2019-06-15T12:51:46.937Z,68.68
2019-06-15T12:52:46.957Z,69.13